Time;durP1;ratioP1;P1;durP2;ratioP2;P2;SDS_P1;SDS_P2;PMS_P1;PMS_P2;Temp;Humidity;BMP_temperature;BMP_pressure;BME280_temperature;BME280_humidity;BME280_pressure;Samples;Min_cycle;Max_cycle;Signal;HPM_P1;HPM_P2
2021/10/03 00:02:00;;;;;;;7.25;3.67;;;15.40;90.80;15.50;100075.00;;;;4976586;28;89096;-65
2021/10/03 00:04:28;;;;;;;7.93;4.50;;;15.40;90.70;15.50;100068.00;;;;4976420;28;88218;-65
2021/10/03 00:06:55;;;;;;;4.80;3.80;;;15.40;90.80;15.40;100065.00;;;;4974379;28;88613;-66
2021/10/03 00:09:21;;;;;;;5.57;3.95;;;15.30;90.70;15.40;100068.00;;;;4970199;28;87706;-65
2021/10/03 00:11:49;;;;;;;4.95;4.25;;;15.30;90.80;15.40;100057.00;;;;4956694;28;89022;-65
2021/10/03 00:14:16;;;;;;;4.97;3.22;;;15.30;90.80;15.40;100059.00;;;;4949544;28;90223;-65
2021/10/03 00:16:43;;;;;;;4.20;3.60;;;15.30;90.90;15.30;100058.00;;;;4976843;28;87826;-65
2021/10/03 00:19:09;;;;;;;5.22;3.42;;;15.20;90.90;15.30;100046.00;;;;4958076;28;87698;-65
2021/10/03 00:21:35;;;;;;;10.35;3.92;;;15.20;90.90;15.30;100048.00;;;;4965735;28;117624;-68
2021/10/03 00:24:00;;;;;;;4.82;3.65;;;15.20;91.00;15.30;100051.00;;;;4975605;28;117537;-67
2021/10/03 00:26:27;;;;;;;7.23;4.53;;;15.20;91.00;15.30;100048.00;;;;4963306;28;110104;-66
2021/10/03 00:28:52;;;;;;;5.38;4.18;;;15.10;91.10;15.20;100037.00;;;;4938350;28;87604;-65
2021/10/03 00:31:18;;;;;;;9.60;3.55;;;15.10;91.20;15.20;100045.00;;;;4955700;28;118864;-66
2021/10/03 00:33:44;;;;;;;8.18;4.40;;;15.10;91.20;15.20;100037.00;;;;4956697;28;118679;-67
2021/10/03 00:36:09;;;;;;;6.50;3.90;;;15.10;91.30;15.20;100046.00;;;;4956087;28;109947;-65
2021/10/03 00:38:35;;;;;;;5.10;4.07;;;15.10;91.30;15.10;100037.00;;;;4973463;28;107672;-66
2021/10/03 00:41:01;;;;;;;5.85;4.65;;;15.00;91.40;15.10;100022.00;;;;4974755;28;116805;-67
2021/10/03 00:43:27;;;;;;;7.90;4.17;;;15.00;91.40;15.10;100038.00;;;;4975358;28;117811;-66
2021/10/03 00:45:53;;;;;;;8.27;3.87;;;15.00;91.50;15.10;100028.00;;;;4956903;28;109265;-65
2021/10/03 00:48:19;;;;;;;5.47;4.32;;;15.00;91.60;15.10;100021.00;;;;4956530;28;94199;-65
2021/10/03 00:50:47;;;;;;;5.93;4.05;;;15.00;91.60;15.10;100022.00;;;;4955822;28;88365;-65
2021/10/03 00:53:14;;;;;;;6.20;3.90;;;15.00;91.70;15.10;100026.00;;;;4956375;28;87932;-65
2021/10/03 00:55:41;;;;;;;8.23;4.60;;;15.00;91.70;15.00;100025.00;;;;4960243;28;93629;-65
2021/10/03 00:58:08;;;;;;;6.82;4.55;;;14.90;91.70;15.00;100017.00;;;;4976641;28;87846;-65
2021/10/03 01:00:37;;;;;;;5.50;3.83;;;14.90;91.70;15.00;100012.00;;;;4974195;28;89623;-65
2021/10/03 01:03:04;;;;;;;5.68;3.35;;;15.00;91.70;15.00;100028.00;;;;4976023;28;88097;-64
2021/10/03 01:05:31;;;;;;;8.80;4.10;;;14.90;91.70;15.00;100025.00;;;;4963946;28;89186;-65
2021/10/03 01:07:57;;;;;;;4.43;3.72;;;14.90;91.70;15.00;100009.00;;;;4955937;28;88229;-65
2021/10/03 01:10:26;;;;;;;6.38;4.90;;;14.80;91.70;15.00;100005.00;;;;4937727;28;88827;-65
2021/10/03 01:12:57;;;;;;;5.00;3.43;;;14.90;91.70;15.00;100004.00;;;;4956234;28;87878;-66
2021/10/03 01:15:25;;;;;;;4.40;3.42;;;14.90;91.70;15.00;99997.00;;;;4955721;28;87976;-67
2021/10/03 01:17:51;;;;;;;6.57;4.38;;;14.90;91.70;15.00;99991.00;;;;4956144;28;87989;-67
2021/10/03 01:20:18;;;;;;;4.20;3.80;;;14.90;91.60;15.00;99988.00;;;;4954698;28;98670;-67
2021/10/03 01:22:43;;;;;;;6.07;4.35;;;14.90;91.70;15.00;99982.00;;;;4956042;28;88638;-67
2021/10/03 01:25:10;;;;;;;10.75;4.18;;;14.90;91.70;14.90;99983.00;;;;4956046;28;93536;-67
2021/10/03 01:27:38;;;;;;;6.43;3.92;;;14.90;91.70;14.90;99979.00;;;;4956059;28;91080;-67
2021/10/03 01:30:09;;;;;;;5.80;4.45;;;14.80;91.70;14.90;99983.00;;;;4955817;28;89117;-67
2021/10/03 01:32:35;;;;;;;6.18;4.22;;;14.80;91.80;14.90;99973.00;;;;4969043;28;103255;-67
2021/10/03 01:35:01;;;;;;;5.70;4.40;;;14.80;91.80;14.90;99974.00;;;;4956652;28;87455;-66
2021/10/03 01:37:26;;;;;;;7.05;4.82;;;14.80;91.70;15.00;99959.00;;;;4957547;28;87083;-67
2021/10/03 01:39:53;;;;;;;4.63;4.03;;;14.80;91.60;15.00;99968.00;;;;4955438;28;87713;-67
2021/10/03 01:42:19;;;;;;;6.70;4.57;;;14.90;91.60;15.00;99968.00;;;;4940450;28;93047;-66
2021/10/03 01:44:44;;;;;;;8.52;3.90;;;14.90;91.50;15.10;99966.00;;;;4969864;28;109758;-66
2021/10/03 01:47:10;;;;;;;6.03;3.65;;;14.90;91.40;15.10;99975.00;;;;4979141;28;87624;-66
2021/10/03 01:49:36;;;;;;;6.93;4.75;;;15.00;91.30;15.10;99969.00;;;;4976536;28;89320;-67
2021/10/03 01:52:02;;;;;;;6.60;4.90;;;15.00;91.10;15.20;99975.00;;;;4958484;28;87842;-67
2021/10/03 01:54:28;;;;;;;7.47;5.25;;;15.10;91.00;15.20;99974.00;;;;4958256;28;96618;-66
2021/10/03 01:56:54;;;;;;;9.48;4.72;;;15.10;90.90;15.20;99971.00;;;;4958330;28;106627;-66
2021/10/03 01:59:20;;;;;;;4.30;3.88;;;15.10;90.80;15.20;99955.00;;;;4958739;28;93919;-66
2021/10/03 02:01:47;;;;;;;6.68;4.93;;;15.10;90.80;15.20;99961.00;;;;4960326;28;88339;-66
2021/10/03 02:04:20;;;;;;;4.68;4.05;;;15.10;90.80;15.20;99953.00;;;;4940479;28;87937;-66
2021/10/03 02:06:49;;;;;;;7.32;4.60;;;15.10;90.80;15.20;99959.00;;;;4959507;28;93034;-66
2021/10/03 02:09:18;;;;;;;6.50;4.70;;;15.10;90.80;15.20;99954.00;;;;4957580;28;102145;-66
2021/10/03 02:11:49;;;;;;;6.13;4.47;;;15.10;90.70;15.20;99962.00;;;;4957958;28;89558;-66
2021/10/03 02:14:16;;;;;;;8.95;4.93;;;15.10;90.70;15.20;99951.00;;;;4958788;28;87816;-67
2021/10/03 02:16:42;;;;;;;7.25;5.05;;;15.10;90.70;15.20;99954.00;;;;4958861;28;87700;-66
2021/10/03 02:19:09;;;;;;;4.88;4.25;;;15.10;90.60;15.20;99954.00;;;;4958148;28;101309;-66
2021/10/03 02:21:35;;;;;;;11.25;4.25;;;15.10;90.60;15.20;99959.00;;;;4959030;28;89403;-66
2021/10/03 02:24:02;;;;;;;7.18;4.80;;;15.10;90.60;15.20;99958.00;;;;4957811;28;94694;-67
2021/10/03 02:26:29;;;;;;;9.85;4.90;;;15.10;90.60;15.20;99957.00;;;;4958866;28;87335;-66
2021/10/03 02:28:55;;;;;;;5.05;4.13;;;15.10;90.70;15.20;99968.00;;;;4970736;28;88954;-66
2021/10/03 02:31:20;;;;;;;6.05;4.32;;;15.10;90.60;15.20;99944.00;;;;4976554;28;103805;-66
2021/10/03 02:33:49;;;;;;;4.70;3.70;;;15.10;90.70;15.20;99948.00;;;;4975495;28;110504;-66
2021/10/03 02:36:22;;;;;;;9.00;5.43;;;15.00;90.70;15.20;99957.00;;;;4967480;28;90657;-66
2021/10/03 02:38:49;;;;;;;6.40;4.82;;;15.10;90.70;15.20;99950.00;;;;4939887;28;88349;-66
2021/10/03 02:41:17;;;;;;;6.95;4.65;;;15.10;90.70;15.10;99943.00;;;;4952143;28;88119;-65
2021/10/03 02:43:48;;;;;;;5.70;3.87;;;15.00;90.70;15.10;99955.00;;;;4939594;28;87918;-66
2021/10/03 02:46:17;;;;;;;12.90;5.63;;;15.00;90.70;15.10;99954.00;;;;4958629;28;87838;-66
2021/10/03 02:48:49;;;;;;;6.00;4.07;;;15.00;90.80;15.10;99951.00;;;;4958325;28;87722;-67
2021/10/03 02:51:22;;;;;;;7.55;4.55;;;15.00;90.90;15.10;99942.00;;;;4958251;28;87104;-66
2021/10/03 02:53:50;;;;;;;4.70;4.20;;;15.00;90.90;15.10;99952.00;;;;4958044;28;87808;-66
2021/10/03 02:56:18;;;;;;;8.35;4.28;;;15.00;91.00;15.10;99945.00;;;;4958465;28;88006;-67
2021/10/03 02:58:44;;;;;;;8.32;4.78;;;15.00;91.00;15.10;99956.00;;;;4949131;28;89747;-65
2021/10/03 03:01:11;;;;;;;9.57;5.25;;;15.00;91.10;15.20;99955.00;;;;4968581;28;90792;-66
2021/10/03 03:03:36;;;;;;;6.55;4.57;;;15.00;91.10;15.20;99953.00;;;;4957564;28;97503;-66
2021/10/03 03:06:07;;;;;;;6.93;5.20;;;15.10;91.00;15.20;99959.00;;;;4958559;28;87776;-65
2021/10/03 03:08:33;;;;;;;5.45;3.42;;;15.10;91.00;15.20;99949.00;;;;4963626;28;87875;-67
2021/10/03 03:11:01;;;;;;;6.68;3.80;;;15.10;91.00;15.20;99968.00;;;;4968335;28;103835;-66
2021/10/03 03:13:27;;;;;;;6.03;4.22;;;15.10;91.00;15.20;99959.00;;;;4978116;28;87864;-66
2021/10/03 03:15:53;;;;;;;7.25;5.43;;;15.10;91.00;15.20;99950.00;;;;4959586;28;86811;-67
2021/10/03 03:18:20;;;;;;;7.93;4.95;;;15.50;91.20;15.10;99959.00;;;;4957191;28;103053;-66
2021/10/03 03:20:45;;;;;;;6.03;5.35;;;15.10;91.10;15.10;99959.00;;;;4956876;28;117255;-66
2021/10/03 03:23:11;;;;;;;8.23;5.32;;;15.00;91.10;15.10;99945.00;;;;4939287;28;88862;-66
2021/10/03 03:25:37;;;;;;;8.80;5.05;;;15.00;91.20;15.10;99946.00;;;;4938119;28;108428;-67
2021/10/03 03:28:05;;;;;;;5.47;4.80;;;15.00;91.30;15.00;99956.00;;;;4957839;28;87702;-66
2021/10/03 03:30:31;;;;;;;4.13;3.77;;;15.00;91.40;15.10;99958.00;;;;4957616;28;87992;-66
2021/10/03 03:32:57;;;;;;;7.00;4.47;;;15.00;91.50;15.00;99968.00;;;;4957703;28;110671;-66
2021/10/03 03:35:22;;;;;;;6.87;4.70;;;14.90;91.50;15.10;99966.00;;;;4956877;28;87985;-65
2021/10/03 03:37:48;;;;;;;6.05;4.82;;;14.90;91.60;15.10;99958.00;;;;4973197;28;102423;-66
2021/10/03 03:40:15;;;;;;;5.80;4.05;;;15.00;91.70;15.10;99952.00;;;;4976238;28;117697;-66
2021/10/03 03:42:41;;;;;;;7.43;5.00;;;15.00;91.70;15.10;99956.00;;;;4976920;28;87668;-66
2021/10/03 03:45:09;;;;;;;5.35;4.40;;;15.00;91.70;15.10;99962.00;;;;4974386;28;108454;-66
2021/10/03 03:47:36;;;;;;;8.05;5.30;;;15.00;91.70;15.10;99962.00;;;;4976377;28;90137;-66
2021/10/03 03:50:03;;;;;;;6.20;4.55;;;15.00;91.70;15.10;99965.00;;;;4970478;28;88674;-67
2021/10/03 03:52:29;;;;;;;5.03;4.37;;;15.00;91.80;15.00;99946.00;;;;4957570;28;87378;-66
2021/10/03 03:54:55;;;;;;;6.15;4.95;;;14.90;91.90;15.00;99966.00;;;;4975395;28;107455;-66
2021/10/03 03:57:20;;;;;;;8.10;4.83;;;14.90;92.00;15.00;99957.00;;;;4975834;28;117371;-68
2021/10/03 03:59:46;;;;;;;6.63;4.70;;;14.90;92.00;15.00;99968.00;;;;4975564;28;115956;-66
2021/10/03 04:02:12;;;;;;;9.43;5.40;;;14.90;92.10;15.00;99975.00;;;;4975997;28;108182;-66
2021/10/03 04:04:38;;;;;;;6.90;4.50;;;14.90;92.30;15.00;99968.00;;;;4966438;28;107591;-66
2021/10/03 04:07:04;;;;;;;6.43;4.60;;;14.90;92.30;15.00;99956.00;;;;4957208;28;89059;-68
2021/10/03 04:09:31;;;;;;;5.67;4.27;;;14.90;92.30;15.00;99960.00;;;;4956456;28;88297;-66
2021/10/03 04:11:56;;;;;;;6.32;3.95;;;14.90;92.30;15.00;99960.00;;;;4956956;28;88799;-66
2021/10/03 04:14:22;;;;;;;5.27;4.33;;;14.90;92.30;15.00;99958.00;;;;4955744;28;109323;-66
2021/10/03 04:16:48;;;;;;;9.90;4.73;;;14.90;92.30;15.00;99953.00;;;;4955941;28;116957;-66
2021/10/03 04:19:13;;;;;;;7.37;4.87;;;14.90;92.30;15.00;99968.00;;;;4955617;28;117369;-66
2021/10/03 04:21:39;;;;;;;4.93;4.33;;;14.90;92.30;15.00;99961.00;;;;4955697;28;109968;-66
2021/10/03 04:24:05;;;;;;;5.73;4.40;;;14.90;92.30;15.00;99956.00;;;;4956137;28;107795;-66
2021/10/03 04:26:30;;;;;;;5.17;4.50;;;14.90;92.30;15.00;99958.00;;;;4955019;28;117241;-66
2021/10/03 04:28:56;;;;;;;9.90;4.93;;;14.90;92.40;14.90;99961.00;;;;4956510;28;88393;-66
2021/10/03 04:31:22;;;;;;;5.80;3.80;;;14.90;92.50;14.90;99952.00;;;;4956413;28;87668;-66
2021/10/03 04:33:47;;;;;;;4.83;4.17;;;14.80;92.60;14.90;99960.00;;;;4956583;28;108996;-66
2021/10/03 04:36:13;;;;;;;11.00;5.80;;;14.80;92.60;14.80;99960.00;;;;4973882;28;118482;-66
2021/10/03 04:38:40;;;;;;;4.80;4.07;;;14.70;92.70;14.80;99956.00;;;;4976063;28;89712;-67
2021/10/03 04:41:06;;;;;;;8.65;4.85;;;14.90;93.00;14.80;99956.00;;;;4976333;28;87908;-66
2021/10/03 04:43:32;;;;;;;4.83;3.70;;;14.70;93.10;14.70;99941.00;;;;4975016;28;89026;-66
2021/10/03 04:45:59;;;;;;;11.03;4.87;;;14.70;93.00;14.70;99951.00;;;;4973590;28;117151;-68
2021/10/03 04:48:24;;;;;;;8.90;4.60;;;14.90;93.20;14.70;99951.00;;;;4975743;28;87785;-66
2021/10/03 04:50:50;;;;;;;6.33;4.47;;;14.70;93.20;14.70;99950.00;;;;4975576;28;111428;-66
2021/10/03 04:53:16;;;;;;;7.10;5.03;;;14.60;93.10;14.70;99945.00;;;;4976889;28;87064;-66
2021/10/03 04:55:42;;;;;;;6.73;4.13;;;14.60;93.20;14.70;99949.00;;;;4973269;28;118155;-66
2021/10/03 04:58:07;;;;;;;14.23;5.13;;;14.60;93.20;14.70;99941.00;;;;4976208;28;88072;-66
2021/10/03 05:00:33;;;;;;;9.07;4.40;;;14.70;93.40;14.60;99956.00;;;;4964635;28;88849;-66
2021/10/03 05:02:59;;;;;;;10.18;4.95;;;14.60;93.10;14.60;99949.00;;;;4956039;28;102291;-66
2021/10/03 05:05:24;;;;;;;7.60;4.73;;;14.50;93.50;14.60;99948.00;;;;4956403;28;98505;-66
2021/10/03 05:07:50;;;;;;;6.50;4.30;;;14.50;93.60;14.50;99937.00;;;;4955967;28;88120;-65
2021/10/03 05:10:16;;;;;;;5.33;4.13;;;14.50;93.80;14.50;99943.00;;;;4970129;28;101412;-66
2021/10/03 05:12:42;;;;;;;6.17;4.83;;;14.40;93.90;14.50;99939.00;;;;4957502;28;87836;-66
2021/10/03 05:15:08;;;;;;;6.93;4.90;;;14.40;94.00;14.50;99940.00;;;;4973450;28;97104;-66
2021/10/03 05:17:34;;;;;;;5.23;3.87;;;14.40;94.10;14.40;99950.00;;;;4979932;28;87832;-65
2021/10/03 05:20:00;;;;;;;7.40;5.13;;;14.40;94.30;14.40;99933.00;;;;4958699;28;110962;-66
2021/10/03 05:22:25;;;;;;;6.90;4.43;;;14.40;94.40;14.40;99948.00;;;;4960016;28;94064;-66
2021/10/03 05:24:53;;;;;;;4.53;3.80;;;14.30;94.40;14.40;99932.00;;;;4957427;28;115358;-65
2021/10/03 05:27:19;;;;;;;7.60;5.43;;;14.30;94.50;14.40;99936.00;;;;4960066;28;99489;-66
2021/10/03 05:29:46;;;;;;;8.03;5.07;;;14.30;94.50;14.40;99938.00;;;;4958958;28;95225;-65
2021/10/03 05:32:13;;;;;;;4.20;3.37;;;14.30;94.60;14.40;99939.00;;;;4959670;28;87762;-66
2021/10/03 05:34:39;;;;;;;9.30;5.47;;;14.30;94.70;14.50;99937.00;;;;4959335;28;87700;-65
2021/10/03 05:37:05;;;;;;;5.73;3.87;;;14.30;94.70;14.50;99936.00;;;;4959527;28;91309;-66
2021/10/03 05:39:31;;;;;;;6.57;5.07;;;14.40;94.80;14.50;99947.00;;;;4958381;28;91285;-67
2021/10/03 05:41:57;;;;;;;8.43;5.73;;;14.40;94.80;14.60;99945.00;;;;4966935;28;93370;-67
2021/10/03 05:44:22;;;;;;;9.27;4.93;;;14.90;94.80;14.60;99950.00;;;;4972043;28;96649;-65
2021/10/03 05:46:48;;;;;;;4.23;3.50;;;14.50;94.70;14.60;99941.00;;;;4977627;28;94507;-66
2021/10/03 05:49:14;;;;;;;6.70;4.20;;;14.50;94.60;14.70;99935.00;;;;4977885;28;100655;-66
2021/10/03 05:51:40;;;;;;;7.50;4.47;;;14.80;94.60;14.70;99943.00;;;;4958001;28;87659;-66
2021/10/03 05:54:06;;;;;;;6.67;4.47;;;14.60;94.40;14.80;99929.00;;;;4958241;28;116409;-66
2021/10/03 05:56:35;;;;;;;6.90;4.90;;;14.60;94.30;14.80;99938.00;;;;4958687;28;87797;-66
2021/10/03 05:59:01;;;;;;;8.97;5.17;;;14.70;94.20;14.90;99944.00;;;;4956628;28;87934;-66
2021/10/03 06:01:28;;;;;;;7.00;5.22;;;14.70;94.10;14.90;99943.00;;;;4956582;28;88035;-66
2021/10/03 06:03:55;;;;;;;5.27;4.03;;;14.80;94.00;15.00;99938.00;;;;4956419;28;88492;-66
2021/10/03 06:06:21;;;;;;;5.83;3.93;;;14.90;93.80;15.00;99931.00;;;;4956870;28;87683;-66
2021/10/03 06:08:47;;;;;;;10.10;4.37;;;14.90;93.80;15.10;99925.00;;;;4955680;28;96331;-66
2021/10/03 06:11:12;;;;;;;5.37;4.17;;;14.90;93.60;15.20;99933.00;;;;4959379;28;108924;-66
2021/10/03 06:13:40;;;;;;;7.17;4.93;;;15.00;93.50;15.30;99929.00;;;;4953888;28;118556;-66
2021/10/03 06:16:07;;;;;;;6.90;4.77;;;15.10;93.50;15.40;99929.00;;;;4955707;28;88054;-66
2021/10/03 06:18:33;;;;;;;9.40;5.00;;;15.20;93.30;15.40;99928.00;;;;4955090;28;88082;-65
2021/10/03 06:20:59;;;;;;;5.68;3.85;;;15.30;93.00;15.50;99943.00;;;;4957258;28;109729;-66
2021/10/03 06:23:25;;;;;;;6.53;4.13;;;15.40;92.50;15.50;99932.00;;;;4955953;28;88216;-66
2021/10/03 06:25:51;;;;;;;4.25;3.85;;;15.40;92.30;15.60;99944.00;;;;4953905;28;115773;-65
2021/10/03 06:28:17;;;;;;;5.72;4.03;;;15.40;92.10;15.60;99940.00;;;;4954947;28;87882;-66
2021/10/03 06:30:42;;;;;;;7.32;4.40;;;15.50;91.80;15.70;99938.00;;;;4958940;28;87063;-65
2021/10/03 06:33:08;;;;;;;5.60;4.18;;;15.50;91.80;15.80;99944.00;;;;4961670;28;94010;-65
2021/10/03 06:35:34;;;;;;;5.57;4.63;;;15.60;91.80;15.90;99933.00;;;;4954498;28;103745;-66
2021/10/03 06:38:00;;;;;;;4.53;4.07;;;15.70;91.30;16.00;99939.00;;;;4938553;28;88655;-66
2021/10/03 06:40:27;;;;;;;6.30;4.55;;;15.80;91.00;16.00;99945.00;;;;4940992;28;87880;-66
2021/10/03 06:42:53;;;;;;;5.45;4.10;;;15.90;91.00;16.10;99937.00;;;;4956783;28;89121;-69
2021/10/03 06:45:19;;;;;;;7.28;4.32;;;15.90;90.70;16.20;99934.00;;;;4955784;28;117134;-68
2021/10/03 06:47:45;;;;;;;7.05;3.53;;;16.00;90.40;16.20;99941.00;;;;4967756;28;87886;-69
2021/10/03 06:50:11;;;;;;;6.90;4.68;;;16.10;90.50;16.20;99935.00;;;;4956329;28;92854;-69
2021/10/03 06:52:37;;;;;;;5.10;3.90;;;16.10;90.20;16.20;99934.00;;;;4954857;28;88688;-68
2021/10/03 06:55:05;;;;;;;5.18;4.22;;;16.10;90.00;16.30;99929.00;;;;4962747;28;100416;-68
2021/10/03 06:57:31;;;;;;;6.18;4.38;;;16.10;90.20;16.40;99939.00;;;;4954870;28;92156;-69
2021/10/03 06:59:56;;;;;;;4.43;4.03;;;16.20;90.20;16.60;99945.00;;;;4954458;28;87661;-68
2021/10/03 07:02:25;;;;;;;6.05;4.13;;;16.80;89.50;16.70;99932.00;;;;4953952;28;117801;-69
2021/10/03 07:04:53;;;;;;;4.43;3.78;;;16.60;88.80;16.80;99942.00;;;;4936508;28;88828;-69
2021/10/03 07:07:19;;;;;;;5.85;4.47;;;16.60;87.30;16.90;99934.00;;;;4973177;28;87753;-69
2021/10/03 07:09:46;;;;;;;6.15;4.65;;;16.70;87.00;17.10;99944.00;;;;4958273;28;87515;-69
2021/10/03 07:12:12;;;;;;;6.57;4.15;;;16.90;87.40;17.30;99944.00;;;;4961298;28;99156;-69
2021/10/03 07:14:38;;;;;;;5.85;4.25;;;17.10;85.50;17.40;99942.00;;;;4954577;28;88012;-68
2021/10/03 07:17:04;;;;;;;6.00;3.53;;;17.20;83.70;17.60;99937.00;;;;4954697;28;87700;-69
2021/10/03 07:19:30;;;;;;;4.55;3.30;;;17.30;84.00;17.80;99940.00;;;;4954835;28;86955;-69
2021/10/03 07:21:56;;;;;;;4.25;3.38;;;17.50;83.70;17.90;99939.00;;;;4955011;28;87771;-68
2021/10/03 07:24:22;;;;;;;4.57;3.42;;;17.70;82.00;18.10;99935.00;;;;4954154;28;88138;-68
2021/10/03 07:26:48;;;;;;;10.00;4.35;;;17.80;79.80;18.20;99933.00;;;;4954190;28;91715;-69
2021/10/03 07:29:14;;;;;;;9.85;4.43;;;18.00;79.50;18.30;99927.00;;;;4954320;28;97483;-68
2021/10/03 07:31:39;;;;;;;5.65;4.10;;;18.10;78.20;18.40;99929.00;;;;4955959;28;88858;-70
2021/10/03 07:34:05;;;;;;;7.00;3.83;;;18.10;78.40;18.50;99931.00;;;;4959062;28;111857;-68
2021/10/03 07:36:31;;;;;;;5.32;3.22;;;18.30;77.00;18.60;99931.00;;;;4953134;28;110303;-71
2021/10/03 07:38:56;;;;;;;5.88;3.97;;;18.40;75.50;18.60;99933.00;;;;4954424;28;87696;-68
2021/10/03 07:41:22;;;;;;;8.32;4.30;;;18.40;76.00;18.80;99928.00;;;;4954317;28;118090;-68
2021/10/03 07:43:49;;;;;;;5.60;3.55;;;18.50;74.10;18.70;99928.00;;;;4960731;28;95344;-69
2021/10/03 07:46:16;;;;;;;4.32;3.80;;;18.50;73.50;18.70;99930.00;;;;4954276;28;87870;-68
2021/10/03 07:48:42;;;;;;;3.63;3.13;;;18.50;73.20;18.80;99919.00;;;;4961725;28;88140;-69
2021/10/03 07:51:10;;;;;;;5.63;3.78;;;18.60;73.50;18.80;99920.00;;;;4953966;28;100044;-68
2021/10/03 07:53:37;;;;;;;5.97;3.55;;;18.60;73.00;18.90;99931.00;;;;4953955;28;89657;-68
2021/10/03 07:56:03;;;;;;;4.75;3.13;;;18.70;72.40;18.90;99931.00;;;;4954427;28;90982;-69
2021/10/03 07:58:29;;;;;;;4.93;3.80;;;18.70;72.50;19.10;99926.00;;;;4961760;28;87781;-68
2021/10/03 08:00:55;;;;;;;6.15;3.65;;;18.80;71.90;19.10;99924.00;;;;4956901;28;118305;-70
2021/10/03 08:03:21;;;;;;;4.25;3.45;;;18.90;70.60;19.10;99925.00;;;;4952225;28;117041;-70
2021/10/03 08:05:47;;;;;;;8.05;4.20;;;18.90;70.60;19.10;99928.00;;;;4954082;28;88030;-70
2021/10/03 08:08:14;;;;;;;5.90;4.05;;;19.20;70.20;19.20;99934.00;;;;4936284;28;87458;-69
2021/10/03 08:10:40;;;;;;;3.97;3.45;;;19.00;70.30;19.30;99933.00;;;;4953314;28;88226;-69
2021/10/03 08:13:07;;;;;;;4.20;3.67;;;19.10;69.70;19.40;99936.00;;;;4935822;28;99375;-69
2021/10/03 08:15:34;;;;;;;6.97;4.38;;;19.20;69.40;19.50;99929.00;;;;4953046;28;89088;-70
2021/10/03 08:18:00;;;;;;;3.95;3.17;;;19.10;69.00;19.60;99936.00;;;;4953432;28;87930;-69
2021/10/03 08:20:26;;;;;;;5.30;3.92;;;19.40;68.20;19.70;99944.00;;;;4953307;28;99956;-69
2021/10/03 08:22:52;;;;;;;6.30;3.97;;;19.50;67.70;19.80;99947.00;;;;4952715;28;88334;-69
2021/10/03 08:25:18;;;;;;;5.55;4.07;;;19.50;66.90;19.90;99952.00;;;;4952782;28;99872;-69
2021/10/03 08:27:44;;;;;;;4.60;3.63;;;19.60;67.30;20.10;99957.00;;;;4936411;28;87815;-68
2021/10/03 08:30:11;;;;;;;3.92;2.88;;;19.80;67.30;20.30;99965.00;;;;4953623;28;88282;-69
2021/10/03 08:32:37;;;;;;;4.85;3.90;;;20.00;66.80;20.50;99945.00;;;;4953886;28;88738;-69
2021/10/03 08:35:07;;;;;;;4.63;3.25;;;20.20;65.20;20.60;99948.00;;;;4953762;28;87869;-69
2021/10/03 08:37:33;;;;;;;6.32;3.65;;;20.30;64.60;20.80;99947.00;;;;4935250;28;87855;-69
2021/10/03 08:40:00;;;;;;;4.32;2.70;;;20.50;64.70;21.00;99947.00;;;;4934852;28;95227;-69
2021/10/03 08:42:27;;;;;;;3.83;3.42;;;20.70;62.70;21.10;99960.00;;;;4955190;28;89352;-69
2021/10/03 08:44:53;;;;;;;5.40;3.83;;;20.80;61.30;21.10;99947.00;;;;4960020;28;110302;-69
2021/10/03 08:47:18;;;;;;;5.90;4.00;;;20.90;61.20;21.20;99947.00;;;;4952700;28;104631;-69
2021/10/03 08:49:44;;;;;;;10.85;3.20;;;20.90;60.90;21.30;99943.00;;;;4951814;28;117928;-69
2021/10/03 08:52:10;;;;;;;4.43;3.63;;;21.00;60.10;21.40;99948.00;;;;4935431;28;88285;-69
2021/10/03 08:54:38;;;;;;;4.85;3.47;;;21.10;60.50;21.60;99958.00;;;;4936318;28;87924;-68
2021/10/03 08:57:08;;;;;;;3.80;3.30;;;21.60;61.20;21.80;99950.00;;;;4938823;28;87036;-68
2021/10/03 08:59:34;;;;;;;3.92;3.15;;;21.40;59.70;21.90;99957.00;;;;4952998;28;97835;-69
2021/10/03 09:02:05;;;;;;;3.85;2.97;;;21.50;59.00;22.10;99972.00;;;;4952904;28;88521;-70
2021/10/03 09:04:38;;;;;;;6.88;3.78;;;21.80;58.50;22.00;99966.00;;;;4953168;28;88526;-69
2021/10/03 09:07:16;;;;;;;4.57;3.50;;;21.80;57.30;22.00;99966.00;;;;4954299;28;87734;-69
2021/10/03 09:09:57;;;;;;;4.63;3.00;;;21.80;57.30;22.10;99968.00;;;;4962205;28;88137;-69
2021/10/03 09:12:37;;;;;;;9.10;3.78;;;21.90;57.80;22.30;99954.00;;;;4953473;28;87639;-68
2021/10/03 09:15:23;;;;;;;4.13;3.10;;;22.00;56.90;22.40;99951.00;;;;4934213;28;87920;-69
2021/10/03 09:17:55;;;;;;;2.72;2.45;;;22.10;56.90;22.40;99944.00;;;;4918105;28;87707;-69
2021/10/03 09:20:27;;;;;;;5.15;3.80;;;22.20;56.00;22.40;99946.00;;;;4933541;28;88558;-69
2021/10/03 09:23:04;;;;;;;5.47;2.72;;;22.20;56.00;22.50;99958.00;;;;4953401;28;88164;-69
2021/10/03 09:25:37;;;;;;;4.28;2.83;;;22.20;55.50;22.30;99949.00;;;;4958055;28;87963;-69
2021/10/03 09:28:07;;;;;;;5.70;3.30;;;22.10;55.40;22.30;99959.00;;;;4952325;28;87687;-69
2021/10/03 09:30:35;;;;;;;3.75;3.10;;;22.10;56.00;22.30;99958.00;;;;4952015;28;89917;-69
2021/10/03 09:33:02;;;;;;;4.60;3.33;;;22.10;56.00;22.20;99961.00;;;;4934629;28;88141;-68
2021/10/03 09:35:31;;;;;;;5.13;3.17;;;22.00;55.30;22.20;99961.00;;;;4957672;28;88636;-68
2021/10/03 09:37:57;;;;;;;4.15;3.17;;;22.00;56.00;22.20;99965.00;;;;4956692;28;87777;-69
2021/10/03 09:40:24;;;;;;;5.57;2.50;;;21.90;55.50;22.20;99961.00;;;;4939049;28;88007;-69
2021/10/03 09:43:03;;;;;;;5.88;3.28;;;21.90;56.10;22.30;99964.00;;;;4954374;28;87818;-68
2021/10/03 09:45:31;;;;;;;4.30;3.42;;;22.00;55.90;22.50;99967.00;;;;4954356;28;87601;-69
2021/10/03 09:48:08;;;;;;;3.50;3.13;;;22.20;56.10;22.60;99969.00;;;;4953173;28;87072;-68
2021/10/03 09:50:40;;;;;;;4.25;2.85;;;22.30;55.00;22.70;99960.00;;;;4940028;28;90618;-69
2021/10/03 09:53:07;;;;;;;4.63;3.00;;;22.40;55.30;22.90;99955.00;;;;4956267;28;87958;-68
2021/10/03 09:55:33;;;;;;;3.47;2.65;;;22.50;55.40;23.00;99957.00;;;;4954718;28;88803;-69
2021/10/03 09:57:59;;;;;;;3.58;2.50;;;22.60;54.20;23.10;99958.00;;;;4956180;28;87929;-69
2021/10/03 10:00:28;;;;;;;4.40;3.05;;;22.80;54.00;23.40;99945.00;;;;4952703;28;104154;-69
2021/10/03 10:02:54;;;;;;;3.90;3.05;;;22.90;54.60;23.70;99943.00;;;;4955456;28;99569;-69
2021/10/03 10:05:26;;;;;;;3.50;2.85;;;23.20;53.90;24.00;99931.00;;;;4959283;28;87477;-69
2021/10/03 10:07:54;;;;;;;3.17;2.88;;;23.50;53.30;24.10;99922.00;;;;4955368;28;87960;-69
2021/10/03 10:10:20;;;;;;;5.03;2.63;;;23.70;52.60;24.30;99923.00;;;;4955389;28;88217;-69
2021/10/03 10:13:02;;;;;;;3.60;2.97;;;23.70;52.00;24.40;99932.00;;;;4956016;28;87086;-68
2021/10/03 10:15:28;;;;;;;3.25;2.83;;;24.00;52.00;24.40;99935.00;;;;4936840;28;88006;-69
2021/10/03 10:17:54;;;;;;;4.75;2.70;;;24.00;51.30;24.10;99935.00;;;;4930741;28;87925;-68
2021/10/03 10:20:24;;;;;;;4.40;3.15;;;23.80;51.40;23.80;99934.00;;;;4938530;28;108415;-68
2021/10/03 10:23:07;;;;;;;4.20;2.67;;;23.80;51.30;23.70;99938.00;;;;4955763;28;88104;-69
2021/10/03 10:25:43;;;;;;;3.08;2.15;;;23.50;51.90;23.50;99935.00;;;;4955381;28;88049;-69
2021/10/03 10:28:32;;;;;;;4.63;2.35;;;23.30;51.40;23.40;99929.00;;;;4956014;28;88084;-69
2021/10/03 10:31:12;;;;;;;9.77;3.05;;;23.30;51.70;23.30;99944.00;;;;4946887;28;88886;-69
2021/10/03 10:33:50;;;;;;;4.00;2.67;;;23.20;52.00;23.30;99927.00;;;;4961389;28;88575;-69
2021/10/03 10:36:18;;;;;;;5.90;2.92;;;23.00;51.40;23.40;99928.00;;;;4957616;28;87985;-69
2021/10/03 10:39:09;;;;;;;6.25;2.50;;;23.10;52.20;23.80;99928.00;;;;4938258;28;87155;-69
2021/10/03 10:41:43;;;;;;;3.95;2.28;;;23.40;51.50;24.00;99927.00;;;;4978961;28;87476;-69
2021/10/03 10:44:25;;;;;;;3.17;2.67;;;24.00;51.20;24.20;99914.00;;;;4961820;28;87698;-70
2021/10/03 10:46:57;;;;;;;3.03;2.58;;;23.80;50.40;24.40;99932.00;;;;4958614;28;88720;-69
2021/10/03 10:49:40;;;;;;;3.20;2.38;;;24.00;49.90;24.40;99930.00;;;;4959026;28;88122;-70
2021/10/03 10:52:22;;;;;;;2.67;2.47;;;24.00;49.70;24.50;99923.00;;;;4936631;28;88849;-70
2021/10/03 10:55:00;;;;;;;3.85;2.53;;;24.30;49.60;24.60;99931.00;;;;4954502;28;87838;-68